sensor_id;sensor_type;location;lat;lon;timestamp;temperature;humidity
17632;DHT22;8934;51.194;17.150;2023-08-21T00:00:17;19.80;99.90
17632;DHT22;8934;51.194;17.150;2023-08-21T00:03:05;19.80;99.90
17632;DHT22;8934;51.194;17.150;2023-08-21T00:05:53;19.70;99.90
17632;DHT22;8934;51.194;17.150;2023-08-21T00:08:41;19.70;99.90
17632;DHT22;8934;51.194;17.150;2023-08-21T00:11:29;19.70;99.90
17632;DHT22;8934;51.194;17.150;2023-08-21T00:14:16;19.70;99.90
17632;DHT22;8934;51.194;17.150;2023-08-21T00:17:06;19.70;99.90
17632;DHT22;8934;51.194;17.150;2023-08-21T00:19:54;19.60;99.90
17632;DHT22;8934;51.194;17.150;2023-08-21T00:22:41;19.60;99.90
17632;DHT22;8934;51.194;17.150;2023-08-21T00:25:30;19.60;99.90
17632;DHT22;8934;51.194;17.150;2023-08-21T00:28:17;19.60;99.90
17632;DHT22;8934;51.194;17.150;2023-08-21T00:31:05;19.50;99.90
17632;DHT22;8934;51.194;17.150;2023-08-21T00:33:55;19.50;99.90
17632;DHT22;8934;51.194;17.150;2023-08-21T00:36:42;19.50;99.90
17632;DHT22;8934;51.194;17.150;2023-08-21T00:39:30;19.50;99.90
17632;DHT22;8934;51.194;17.150;2023-08-21T00:42:18;19.50;99.90
17632;DHT22;8934;51.194;17.150;2023-08-21T00:45:06;19.50;99.90
17632;DHT22;8934;51.194;17.150;2023-08-21T00:47:54;19.50;99.90
17632;DHT22;8934;51.194;17.150;2023-08-21T00:50:44;19.50;99.90
17632;DHT22;8934;51.194;17.150;2023-08-21T00:53:33;19.50;99.90
17632;DHT22;8934;51.194;17.150;2023-08-21T00:56:21;19.40;99.90
17632;DHT22;8934;51.194;17.150;2023-08-21T00:59:09;19.40;99.90
17632;DHT22;8934;51.194;17.150;2023-08-21T01:01:57;19.40;99.90
17632;DHT22;8934;51.194;17.150;2023-08-21T01:04:45;19.40;99.90
17632;DHT22;8934;51.194;17.150;2023-08-21T01:07:43;19.40;99.90
17632;DHT22;8934;51.194;17.150;2023-08-21T01:10:42;19.40;99.90
17632;DHT22;8934;51.194;17.150;2023-08-21T01:13:41;19.40;99.90
17632;DHT22;8934;51.194;17.150;2023-08-21T01:16:32;19.50;99.90
17632;DHT22;8934;51.194;17.150;2023-08-21T01:19:36;19.50;99.90
17632;DHT22;8934;51.194;17.150;2023-08-21T01:22:26;19.60;99.90
17632;DHT22;8934;51.194;17.150;2023-08-21T01:25:15;19.60;99.90
17632;DHT22;8934;51.194;17.150;2023-08-21T10:43:55;19.70;99.90
17632;DHT22;8934;51.194;17.150;2023-08-21T10:46:52;30.50;99.90
17632;DHT22;8934;51.194;17.150;2023-08-21T10:49:41;30.50;99.90
17632;DHT22;8934;51.194;17.150;2023-08-21T10:52:30;30.20;99.90
17632;DHT22;8934;51.194;17.150;2023-08-21T10:55:19;29.90;99.90
17632;DHT22;8934;51.194;17.150;2023-08-21T10:58:08;29.60;99.90
17632;DHT22;8934;51.194;17.150;2023-08-21T11:00:59;29.60;99.90
17632;DHT22;8934;51.194;17.150;2023-08-21T11:03:50;29.80;99.90
17632;DHT22;8934;51.194;17.150;2023-08-21T11:06:38;29.90;99.90
17632;DHT22;8934;51.194;17.150;2023-08-21T11:09:26;29.80;99.90
17632;DHT22;8934;51.194;17.150;2023-08-21T11:12:15;29.70;99.90
17632;DHT22;8934;51.194;17.150;2023-08-21T11:15:04;29.70;99.90
17632;DHT22;8934;51.194;17.150;2023-08-21T11:17:58;29.60;99.90
17632;DHT22;8934;51.194;17.150;2023-08-21T11:20:47;29.80;99.90
17632;DHT22;8934;51.194;17.150;2023-08-21T11:23:35;30.00;99.90
17632;DHT22;8934;51.194;17.150;2023-08-21T11:26:25;30.40;99.90
17632;DHT22;8934;51.194;17.150;2023-08-21T11:29:13;30.50;99.90
17632;DHT22;8934;51.194;17.150;2023-08-21T11:32:02;30.40;99.90
17632;DHT22;8934;51.194;17.150;2023-08-21T11:34:54;30.50;99.90
17632;DHT22;8934;51.194;17.150;2023-08-21T11:37:44;30.40;99.90
17632;DHT22;8934;51.194;17.150;2023-08-21T11:40:34;30.60;99.90
17632;DHT22;8934;51.194;17.150;2023-08-21T11:43:24;30.90;99.90
17632;DHT22;8934;51.194;17.150;2023-08-21T11:46:20;31.10;99.90
17632;DHT22;8934;51.194;17.150;2023-08-21T11:49:08;30.70;99.90
17632;DHT22;8934;51.194;17.150;2023-08-21T11:51:57;30.50;99.90
17632;DHT22;8934;51.194;17.150;2023-08-21T11:54:47;30.50;99.90
17632;DHT22;8934;51.194;17.150;2023-08-21T11:57:35;30.60;99.90
17632;DHT22;8934;51.194;17.150;2023-08-21T12:00:27;30.70;99.90
17632;DHT22;8934;51.194;17.150;2023-08-21T12:03:18;30.70;99.90
17632;DHT22;8934;51.194;17.150;2023-08-21T12:06:07;30.60;99.90
17632;DHT22;8934;51.194;17.150;2023-08-21T12:08:56;30.30;99.90
17632;DHT22;8934;51.194;17.150;2023-08-21T12:11:44;30.40;99.90
17632;DHT22;8934;51.194;17.150;2023-08-21T12:14:32;30.50;99.90
17632;DHT22;8934;51.194;17.150;2023-08-21T12:17:19;30.70;99.90
17632;DHT22;8934;51.194;17.150;2023-08-21T12:20:08;30.80;99.90
17632;DHT22;8934;51.194;17.150;2023-08-21T12:22:58;31.00;99.90
17632;DHT22;8934;51.194;17.150;2023-08-21T12:25:47;31.40;99.90
17632;DHT22;8934;51.194;17.150;2023-08-21T12:28:34;31.50;99.90
17632;DHT22;8934;51.194;17.150;2023-08-21T12:31:22;31.60;99.90
17632;DHT22;8934;51.194;17.150;2023-08-21T12:34:10;31.80;99.90
17632;DHT22;8934;51.194;17.150;2023-08-21T12:36:57;31.80;99.90
17632;DHT22;8934;51.194;17.150;2023-08-21T12:39:45;31.90;99.90
17632;DHT22;8934;51.194;17.150;2023-08-21T12:42:35;32.10;99.90
17632;DHT22;8934;51.194;17.150;2023-08-21T12:45:23;31.90;99.90
17632;DHT22;8934;51.194;17.150;2023-08-21T12:48:11;31.90;99.90
17632;DHT22;8934;51.194;17.150;2023-08-21T12:50:59;32.00;99.90
17632;DHT22;8934;51.194;17.150;2023-08-21T12:53:47;32.50;99.90
17632;DHT22;8934;51.194;17.150;2023-08-21T12:56:35;33.00;99.90
17632;DHT22;8934;51.194;17.150;2023-08-21T12:59:24;33.00;99.90
17632;DHT22;8934;51.194;17.150;2023-08-21T13:02:11;32.90;99.90
17632;DHT22;8934;51.194;17.150;2023-08-21T13:04:59;32.90;99.90
17632;DHT22;8934;51.194;17.150;2023-08-21T13:07:46;32.90;99.90
17632;DHT22;8934;51.194;17.150;2023-08-21T13:10:34;32.70;99.90
17632;DHT22;8934;51.194;17.150;2023-08-21T13:13:21;32.60;99.90
17632;DHT22;8934;51.194;17.150;2023-08-21T13:16:10;32.40;99.90
17632;DHT22;8934;51.194;17.150;2023-08-21T13:18:58;32.10;99.90
17632;DHT22;8934;51.194;17.150;2023-08-21T13:21:46;32.10;99.90
17632;DHT22;8934;51.194;17.150;2023-08-21T13:24:34;32.30;99.90
17632;DHT22;8934;51.194;17.150;2023-08-21T13:27:22;32.50;99.90
17632;DHT22;8934;51.194;17.150;2023-08-21T13:30:11;32.80;99.90
17632;DHT22;8934;51.194;17.150;2023-08-21T13:33:00;32.90;99.90
17632;DHT22;8934;51.194;17.150;2023-08-21T13:35:50;32.60;99.90
17632;DHT22;8934;51.194;17.150;2023-08-21T13:38:38;32.50;99.90
17632;DHT22;8934;51.194;17.150;2023-08-21T13:41:25;32.70;99.90
17632;DHT22;8934;51.194;17.150;2023-08-21T13:44:13;32.90;99.90
17632;DHT22;8934;51.194;17.150;2023-08-21T13:47:01;32.80;99.90
17632;DHT22;8934;51.194;17.150;2023-08-21T13:49:50;33.00;99.90
17632;DHT22;8934;51.194;17.150;2023-08-21T13:52:38;33.20;99.90
17632;DHT22;8934;51.194;17.150;2023-08-21T13:55:27;33.10;99.90
17632;DHT22;8934;51.194;17.150;2023-08-21T13:58:14;33.10;99.90
17632;DHT22;8934;51.194;17.150;2023-08-21T14:01:02;33.30;99.90
17632;DHT22;8934;51.194;17.150;2023-08-21T14:03:50;33.40;99.90
17632;DHT22;8934;51.194;17.150;2023-08-21T14:06:39;33.50;99.90
17632;DHT22;8934;51.194;17.150;2023-08-21T14:09:27;33.60;99.90
17632;DHT22;8934;51.194;17.150;2023-08-21T14:12:15;33.70;99.90
17632;DHT22;8934;51.194;17.150;2023-08-21T14:15:04;33.60;99.90
17632;DHT22;8934;51.194;17.150;2023-08-21T14:17:51;33.30;99.90
17632;DHT22;8934;51.194;17.150;2023-08-21T14:20:42;33.70;99.90
17632;DHT22;8934;51.194;17.150;2023-08-21T14:23:31;34.00;99.90
17632;DHT22;8934;51.194;17.150;2023-08-21T14:26:19;34.00;99.90
17632;DHT22;8934;51.194;17.150;2023-08-21T14:29:07;33.90;99.90
17632;DHT22;8934;51.194;17.150;2023-08-21T14:31:58;33.80;99.90
17632;DHT22;8934;51.194;17.150;2023-08-21T14:34:48;33.80;99.90
17632;DHT22;8934;51.194;17.150;2023-08-21T17:40:20;33.60;99.90
17632;DHT22;8934;51.194;17.150;2023-08-21T17:43:07;25.60;99.90
17632;DHT22;8934;51.194;17.150;2023-08-21T17:45:56;25.20;99.90
17632;DHT22;8934;51.194;17.150;2023-08-21T17:48:44;24.90;99.90
17632;DHT22;8934;51.194;17.150;2023-08-21T17:51:32;24.80;99.90
17632;DHT22;8934;51.194;17.150;2023-08-21T17:54:20;24.50;99.90
17632;DHT22;8934;51.194;17.150;2023-08-21T17:57:07;24.30;99.90
17632;DHT22;8934;51.194;17.150;2023-08-21T17:59:55;24.10;99.90
17632;DHT22;8934;51.194;17.150;2023-08-21T18:02:44;23.90;99.90
17632;DHT22;8934;51.194;17.150;2023-08-21T18:05:32;23.70;99.90
17632;DHT22;8934;51.194;17.150;2023-08-21T18:08:20;23.50;99.90
17632;DHT22;8934;51.194;17.150;2023-08-21T18:11:08;23.30;99.90
17632;DHT22;8934;51.194;17.150;2023-08-21T18:13:56;23.10;99.90
17632;DHT22;8934;51.194;17.150;2023-08-21T18:16:44;23.00;99.90
17632;DHT22;8934;51.194;17.150;2023-08-21T18:19:35;22.90;99.90
17632;DHT22;8934;51.194;17.150;2023-08-21T18:22:32;22.70;99.90
17632;DHT22;8934;51.194;17.150;2023-08-21T18:25:20;22.60;99.90
17632;DHT22;8934;51.194;17.150;2023-08-21T18:28:08;22.40;99.90
17632;DHT22;8934;51.194;17.150;2023-08-21T18:30:56;22.30;99.90
17632;DHT22;8934;51.194;17.150;2023-08-21T18:33:44;22.20;99.90
17632;DHT22;8934;51.194;17.150;2023-08-21T18:36:33;22.10;99.90
17632;DHT22;8934;51.194;17.150;2023-08-21T18:39:20;22.00;99.90
17632;DHT22;8934;51.194;17.150;2023-08-21T18:42:08;21.80;99.90
17632;DHT22;8934;51.194;17.150;2023-08-21T18:44:56;21.70;99.90
17632;DHT22;8934;51.194;17.150;2023-08-21T18:47:44;21.60;99.90
17632;DHT22;8934;51.194;17.150;2023-08-21T18:50:33;21.50;99.90
17632;DHT22;8934;51.194;17.150;2023-08-21T18:53:22;21.40;99.90
17632;DHT22;8934;51.194;17.150;2023-08-21T18:56:10;21.30;99.90
17632;DHT22;8934;51.194;17.150;2023-08-21T18:58:57;21.20;99.90
17632;DHT22;8934;51.194;17.150;2023-08-21T19:01:45;21.20;99.90
17632;DHT22;8934;51.194;17.150;2023-08-21T19:04:33;21.10;99.90
17632;DHT22;8934;51.194;17.150;2023-08-21T19:07:21;21.00;99.90
17632;DHT22;8934;51.194;17.150;2023-08-21T19:10:10;21.00;99.90
17632;DHT22;8934;51.194;17.150;2023-08-21T19:12:57;20.90;99.90
17632;DHT22;8934;51.194;17.150;2023-08-21T19:15:46;20.80;99.90
17632;DHT22;8934;51.194;17.150;2023-08-21T19:18:34;20.80;99.90
17632;DHT22;8934;51.194;17.150;2023-08-21T19:21:22;20.70;99.90
17632;DHT22;8934;51.194;17.150;2023-08-21T19:24:10;20.60;99.90
17632;DHT22;8934;51.194;17.150;2023-08-21T19:26:59;20.60;99.90
17632;DHT22;8934;51.194;17.150;2023-08-21T19:29:46;20.50;99.90
17632;DHT22;8934;51.194;17.150;2023-08-21T19:32:34;20.50;99.90
17632;DHT22;8934;51.194;17.150;2023-08-21T19:35:22;20.50;99.90
17632;DHT22;8934;51.194;17.150;2023-08-21T19:38:11;20.40;99.90
17632;DHT22;8934;51.194;17.150;2023-08-21T19:40:59;20.30;99.90
17632;DHT22;8934;51.194;17.150;2023-08-21T19:43:48;20.20;99.90
17632;DHT22;8934;51.194;17.150;2023-08-21T19:46:36;20.20;99.90
17632;DHT22;8934;51.194;17.150;2023-08-21T19:49:24;20.10;99.90
17632;DHT22;8934;51.194;17.150;2023-08-21T19:52:12;20.00;99.90
17632;DHT22;8934;51.194;17.150;2023-08-21T19:55:00;20.00;99.90
17632;DHT22;8934;51.194;17.150;2023-08-21T19:57:48;19.90;99.90
17632;DHT22;8934;51.194;17.150;2023-08-21T20:00:40;19.80;99.90
17632;DHT22;8934;51.194;17.150;2023-08-21T20:03:27;19.70;99.90
17632;DHT22;8934;51.194;17.150;2023-08-21T20:06:15;19.70;99.90
17632;DHT22;8934;51.194;17.150;2023-08-21T20:09:03;19.70;99.90
17632;DHT22;8934;51.194;17.150;2023-08-21T20:11:51;19.60;99.90
17632;DHT22;8934;51.194;17.150;2023-08-21T20:14:42;19.60;99.90
17632;DHT22;8934;51.194;17.150;2023-08-21T20:17:32;19.50;99.90
17632;DHT22;8934;51.194;17.150;2023-08-21T20:20:20;19.40;99.90
17632;DHT22;8934;51.194;17.150;2023-08-21T20:23:08;19.40;99.90
17632;DHT22;8934;51.194;17.150;2023-08-21T20:25:56;19.30;99.90
17632;DHT22;8934;51.194;17.150;2023-08-21T20:28:44;19.30;99.90
17632;DHT22;8934;51.194;17.150;2023-08-21T20:31:32;19.20;99.90
17632;DHT22;8934;51.194;17.150;2023-08-21T20:34:22;19.20;99.90
17632;DHT22;8934;51.194;17.150;2023-08-21T20:37:10;19.10;99.90
17632;DHT22;8934;51.194;17.150;2023-08-21T20:39:57;19.10;99.90
17632;DHT22;8934;51.194;17.150;2023-08-21T20:42:46;19.00;99.90
17632;DHT22;8934;51.194;17.150;2023-08-21T20:45:33;19.00;99.90
17632;DHT22;8934;51.194;17.150;2023-08-21T20:48:21;19.00;99.90
17632;DHT22;8934;51.194;17.150;2023-08-21T20:51:10;19.00;99.90
17632;DHT22;8934;51.194;17.150;2023-08-21T20:53:59;18.90;99.90
17632;DHT22;8934;51.194;17.150;2023-08-21T20:56:47;18.90;99.90
17632;DHT22;8934;51.194;17.150;2023-08-21T20:59:34;18.80;99.90
17632;DHT22;8934;51.194;17.150;2023-08-21T21:02:22;18.80;99.90
17632;DHT22;8934;51.194;17.150;2023-08-21T21:05:10;18.80;99.90
17632;DHT22;8934;51.194;17.150;2023-08-21T21:07:59;18.70;99.90
17632;DHT22;8934;51.194;17.150;2023-08-21T21:10:47;18.70;99.90
17632;DHT22;8934;51.194;17.150;2023-08-21T21:13:34;18.70;99.90
17632;DHT22;8934;51.194;17.150;2023-08-21T21:16:23;18.60;99.90
17632;DHT22;8934;51.194;17.150;2023-08-21T21:19:12;18.60;99.90
17632;DHT22;8934;51.194;17.150;2023-08-21T21:21:59;18.60;99.90
17632;DHT22;8934;51.194;17.150;2023-08-21T21:24:48;18.50;99.90
17632;DHT22;8934;51.194;17.150;2023-08-21T21:27:36;18.50;99.90
17632;DHT22;8934;51.194;17.150;2023-08-21T21:30:24;18.40;99.90
17632;DHT22;8934;51.194;17.150;2023-08-21T21:33:12;18.40;99.90
17632;DHT22;8934;51.194;17.150;2023-08-21T21:36:00;18.40;99.90
17632;DHT22;8934;51.194;17.150;2023-08-21T21:38:49;18.30;99.90
17632;DHT22;8934;51.194;17.150;2023-08-21T21:41:38;18.30;99.90
17632;DHT22;8934;51.194;17.150;2023-08-21T21:44:26;18.30;99.90
17632;DHT22;8934;51.194;17.150;2023-08-21T21:47:14;18.30;99.90
17632;DHT22;8934;51.194;17.150;2023-08-21T21:50:03;18.30;99.90
17632;DHT22;8934;51.194;17.150;2023-08-21T21:52:50;18.40;99.90
17632;DHT22;8934;51.194;17.150;2023-08-21T21:55:38;18.40;99.90
17632;DHT22;8934;51.194;17.150;2023-08-21T21:58:27;18.40;99.90
17632;DHT22;8934;51.194;17.150;2023-08-21T22:01:16;18.30;99.90
17632;DHT22;8934;51.194;17.150;2023-08-21T22:04:04;18.30;99.90
17632;DHT22;8934;51.194;17.150;2023-08-21T22:06:52;18.20;99.90
17632;DHT22;8934;51.194;17.150;2023-08-21T22:09:40;18.10;99.90
17632;DHT22;8934;51.194;17.150;2023-08-21T22:12:29;18.00;99.90
17632;DHT22;8934;51.194;17.150;2023-08-21T22:15:19;18.00;99.90
17632;DHT22;8934;51.194;17.150;2023-08-21T22:18:07;17.90;99.90
17632;DHT22;8934;51.194;17.150;2023-08-21T22:20:54;17.80;99.90
17632;DHT22;8934;51.194;17.150;2023-08-21T22:23:42;17.80;99.90
17632;DHT22;8934;51.194;17.150;2023-08-21T22:26:30;17.80;99.90
17632;DHT22;8934;51.194;17.150;2023-08-21T22:29:20;17.80;99.90
17632;DHT22;8934;51.194;17.150;2023-08-21T22:32:09;17.70;99.90
17632;DHT22;8934;51.194;17.150;2023-08-21T22:34:57;17.70;99.90
17632;DHT22;8934;51.194;17.150;2023-08-21T22:37:45;17.70;99.90
17632;DHT22;8934;51.194;17.150;2023-08-21T22:40:35;17.70;99.90
17632;DHT22;8934;51.194;17.150;2023-08-21T22:43:23;17.70;99.90
17632;DHT22;8934;51.194;17.150;2023-08-21T22:46:11;17.60;99.90
17632;DHT22;8934;51.194;17.150;2023-08-21T22:49:00;17.60;99.90
17632;DHT22;8934;51.194;17.150;2023-08-21T22:51:50;17.60;99.90
